Time;durP1;ratioP1;P1;durP2;ratioP2;P2;SDS_P1;SDS_P2;PMS_P1;PMS_P2;Temp;Humidity;BMP_temperature;BMP_pressure;BME280_temperature;BME280_humidity;BME280_pressure;Samples;Min_cycle;Max_cycle;Signal;HPM_P1;HPM_P2
2022/04/05 00:00:58;;;;;;;16.40;9.00;;;;;;;10.56;54.93;99562.88;5054133;28;20017;-37
2022/04/05 00:03:23;;;;;;;15.43;9.25;;;;;;;10.40;55.27;99555.34;5053648;28;20075;-37
2022/04/05 00:05:49;;;;;;;15.15;9.00;;;;;;;10.37;55.89;99548.59;5053776;28;20024;-37
2022/04/05 00:08:17;;;;;;;14.50;8.85;;;;;;;10.37;55.53;99545.91;5053680;28;20119;-37
2022/04/05 00:10:43;;;;;;;15.00;9.27;;;;;;;10.26;55.98;99544.69;5053563;28;20040;-37
2022/04/05 00:13:09;;;;;;;16.38;9.48;;;;;;;10.42;55.97;99551.44;5053443;28;20024;-37
2022/04/05 00:15:35;;;;;;;16.20;9.68;;;;;;;10.37;55.81;99543.25;5053132;28;20416;-36
2022/04/05 00:18:01;;;;;;;16.15;10.13;;;;;;;10.48;55.72;99552.47;5053256;28;20031;-38
2022/04/05 00:20:27;;;;;;;15.05;10.15;;;;;;;10.53;55.13;99547.34;5053711;28;20029;-37
2022/04/05 00:22:54;;;;;;;15.43;10.02;;;;;;;10.41;55.51;99551.66;5033455;28;20051;-37
2022/04/05 00:25:20;;;;;;;16.40;10.27;;;;;;;10.44;55.39;99548.59;5033509;28;20033;-36
2022/04/05 00:27:46;;;;;;;17.23;10.88;;;;;;;10.54;55.02;99546.31;5033228;28;20117;-37
2022/04/05 00:30:12;;;;;;;17.50;10.68;;;;;;;10.53;54.44;99550.00;5033522;28;20361;-37
2022/04/05 00:32:37;;;;;;;18.23;10.93;;;;;;;10.59;54.54;99548.34;5033059;28;20442;-38
2022/04/05 00:35:04;;;;;;;16.63;10.55;;;;;;;10.50;54.25;99545.91;5033133;28;20052;-38
2022/04/05 00:37:30;;;;;;;16.48;10.65;;;;;;;10.52;54.50;99533.22;5033008;28;20037;-36
2022/04/05 00:39:55;;;;;;;15.93;10.90;;;;;;;10.56;54.15;99542.41;5033414;28;20026;-36
2022/04/05 00:42:21;;;;;;;15.85;10.35;;;;;;;10.36;54.67;99534.47;5033035;28;20045;-37
2022/04/05 00:44:47;;;;;;;16.25;9.95;;;;;;;10.39;54.69;99527.91;5033002;28;20496;-38
2022/04/05 00:47:21;;;;;;;14.77;9.18;;;;;;;10.54;53.87;99528.50;5033174;28;20159;-38
2022/04/05 00:49:48;;;;;;;13.93;9.77;;;;;;;10.49;54.15;99530.13;5033126;28;20059;-38
2022/04/05 00:52:16;;;;;;;15.13;9.52;;;;;;;10.52;53.53;99527.06;5033022;28;20044;-37
2022/04/05 00:54:44;;;;;;;13.82;9.27;;;;;;;10.49;53.16;99517.69;5032832;28;20029;-38
2022/04/05 00:57:12;;;;;;;13.40;8.48;;;;;;;10.64;52.77;99517.44;5033019;28;20026;-37
2022/04/05 00:59:45;;;;;;;12.02;8.35;;;;;;;10.56;52.28;99512.31;5032302;28;20418;-37
2022/04/05 01:02:20;;;;;;;11.38;7.10;;;;;;;10.62;52.55;99508.81;5032988;28;20033;-36
2022/04/05 01:04:47;;;;;;;12.50;7.15;;;;;;;10.59;52.09;99508.44;5032482;28;20032;-36
2022/04/05 01:07:23;;;;;;;10.95;6.85;;;;;;;10.53;52.30;99516.22;5031780;28;20124;-37
2022/04/05 01:09:53;;;;;;;12.18;7.07;;;;;;;10.63;51.68;99507.00;5031576;28;20021;-36
2022/04/05 01:12:20;;;;;;;10.07;6.90;;;;;;;10.73;50.82;99507.38;5038730;28;20067;-37
2022/04/05 01:14:47;;;;;;;10.35;6.70;;;;;;;10.71;51.12;99498.78;5052361;28;20052;-38
2022/04/05 01:17:13;;;;;;;9.75;6.75;;;;;;;10.71;51.38;99490.78;5052627;28;20075;-38
2022/04/05 01:19:39;;;;;;;10.40;6.90;;;;;;;10.73;51.01;99494.06;5052189;28;20418;-38
2022/04/05 01:22:05;;;;;;;9.60;6.75;;;;;;;10.74;51.11;99490.38;5052248;28;20056;-38
2022/04/05 01:24:32;;;;;;;9.77;6.93;;;;;;;10.78;51.04;99488.94;5052094;28;20033;-38
2022/04/05 01:26:59;;;;;;;14.25;6.88;;;;;;;10.76;51.27;99486.47;5050969;28;20067;-38
2022/04/05 01:29:26;;;;;;;11.77;8.00;;;;;;;10.77;51.94;99481.97;5052076;28;20029;-38
2022/04/05 01:31:56;;;;;;;12.93;7.53;;;;;;;10.26;53.18;99482.69;5052063;28;20024;-38
2022/04/05 01:34:25;;;;;;;13.50;7.82;;;;;;;10.40;53.05;99489.66;5052080;28;20020;-38
2022/04/05 01:36:53;;;;;;;12.70;7.97;;;;;;;10.51;52.73;99481.03;5052133;28;20106;-38
2022/04/05 01:39:22;;;;;;;15.27;8.02;;;;;;;10.33;52.65;99483.53;5052044;28;20030;-37
2022/04/05 01:41:59;;;;;;;13.75;7.57;;;;;;;10.29;53.73;99480.44;5051459;28;20036;-38
2022/04/05 01:44:26;;;;;;;12.68;8.52;;;;;;;10.31;53.99;99481.06;5051478;28;20158;-38
2022/04/05 01:46:52;;;;;;;13.82;8.52;;;;;;;10.25;54.79;99471.25;5051714;28;20037;-38
2022/04/05 01:49:18;;;;;;;13.43;9.20;;;;;;;10.18;55.11;99473.09;5051590;28;20029;-38
2022/04/05 01:51:45;;;;;;;16.05;8.95;;;;;;;10.17;55.03;99476.78;5051863;28;20051;-38
2022/04/05 01:54:13;;;;;;;12.98;8.82;;;;;;;10.17;55.49;99474.13;5051785;28;20028;-38
2022/04/05 01:56:49;;;;;;;16.27;8.57;;;;;;;10.41;55.67;99467.34;5051923;28;20055;-39
2022/04/05 01:59:20;;;;;;;12.02;8.30;;;;;;;10.31;55.50;99473.09;5051873;28;20138;-36
2022/04/05 02:01:46;;;;;;;13.32;8.25;;;;;;;10.35;54.66;99463.66;5051530;28;20035;-36
2022/04/05 02:04:12;;;;;;;12.85;7.75;;;;;;;10.53;54.47;99464.88;5051602;28;20029;-37
2022/04/05 02:06:42;;;;;;;16.45;8.55;;;;;;;10.48;54.36;99475.31;5051388;28;20048;-38
2022/04/05 02:09:08;;;;;;;14.93;9.32;;;;;;;10.45;55.88;99462.41;5051513;28;20511;-37
2022/04/05 02:11:35;;;;;;;19.08;10.15;;;;;;;10.22;56.29;99468.19;5051261;28;20067;-37
2022/04/05 02:14:00;;;;;;;13.70;9.18;;;;;;;10.12;56.78;99469.41;5050843;28;20025;-38
2022/04/05 02:16:26;;;;;;;16.55;9.25;;;;;;;10.17;56.78;99469.63;5051230;28;20040;-37
2022/04/05 02:18:52;;;;;;;14.98;8.82;;;;;;;10.15;57.12;99471.66;5051204;28;20036;-37
2022/04/05 02:21:18;;;;;;;13.18;8.38;;;;;;;10.17;56.59;99469.63;5051214;28;20079;-37
2022/04/05 02:23:43;;;;;;;13.70;9.02;;;;;;;10.12;56.85;99468.59;5050935;28;20459;-37
2022/04/05 02:26:09;;;;;;;15.32;9.73;;;;;;;10.24;57.46;99466.94;5051205;28;20469;-37
2022/04/05 02:28:35;;;;;;;18.52;10.75;;;;;;;10.18;58.27;99473.09;5051404;28;20047;-37
2022/04/05 02:31:00;;;;;;;22.77;12.13;;;;;;;9.98;59.06;99473.94;5049645;28;20029;-37
2022/04/05 02:33:26;;;;;;;22.30;12.85;;;;;;;10.20;58.88;99470.22;5050931;28;20036;-37
2022/04/05 02:35:52;;;;;;;25.63;14.38;;;;;;;10.05;59.60;99473.94;5050622;28;20166;-37
2022/04/05 02:38:18;;;;;;;23.77;13.88;;;;;;;9.86;60.53;99467.63;5051101;28;20024;-36
2022/04/05 02:40:43;;;;;;;26.98;14.73;;;;;;;9.81;60.26;99464.75;5051070;28;20086;-37
2022/04/05 02:43:09;;;;;;;29.25;14.63;;;;;;;9.72;61.08;99465.97;5051155;28;20535;-37
2022/04/05 02:45:34;;;;;;;26.77;15.30;;;;;;;9.75;60.51;99462.91;5050607;28;20064;-37
2022/04/05 02:48:00;;;;;;;28.90;15.68;;;;;;;9.77;60.54;99461.69;5050962;28;20025;-37
2022/04/05 02:50:25;;;;;;;25.30;14.95;;;;;;;9.77;60.76;99467.00;5050926;28;20056;-37
2022/04/05 02:52:52;;;;;;;20.48;11.15;;;;;;;9.52;62.13;99463.28;5050687;28;20037;-37
2022/04/05 02:55:17;;;;;;;19.35;10.95;;;;;;;9.70;62.09;99463.53;5050395;28;20087;-37
2022/04/05 02:57:45;;;;;;;19.90;10.95;;;;;;;9.62;62.92;99460.25;5051047;28;20025;-37
2022/04/05 03:00:12;;;;;;;18.80;11.10;;;;;;;9.61;63.52;99464.75;5050996;28;20021;-37
2022/04/05 03:02:38;;;;;;;19.95;10.90;;;;;;;9.53;64.02;99462.28;5050827;28;20025;-37
2022/04/05 03:05:06;;;;;;;18.35;10.85;;;;;;;9.59;63.94;99459.66;5050549;28;20094;-37
2022/04/05 03:07:32;;;;;;;20.33;11.82;;;;;;;9.46;64.52;99456.16;5050055;28;20057;-37
2022/04/05 03:09:57;;;;;;;17.05;10.65;;;;;;;9.54;64.28;99461.28;5050821;28;20056;-37
2022/04/05 03:12:23;;;;;;;18.25;10.90;;;;;;;9.54;64.05;99461.28;5050852;28;20329;-37
2022/04/05 03:14:48;;;;;;;18.65;11.25;;;;;;;9.56;63.59;99459.25;5049339;28;20441;-38
2022/04/05 03:17:14;;;;;;;22.85;11.50;;;;;;;9.44;63.50;99455.53;5050414;28;20029;-37
2022/04/05 03:19:39;;;;;;;23.70;11.43;;;;;;;9.33;63.97;99457.78;5050993;28;20463;-37
2022/04/05 03:22:11;;;;;;;19.73;11.13;;;;;;;9.37;63.30;99453.69;5050619;28;20421;-37
2022/04/05 03:24:37;;;;;;;19.45;11.07;;;;;;;9.23;63.91;99457.34;5050383;28;20525;-38
2022/04/05 03:27:03;;;;;;;18.90;10.38;;;;;;;9.22;63.85;99454.91;5050757;28;20025;-37
2022/04/05 03:29:29;;;;;;;17.88;10.98;;;;;;;9.14;64.25;99450.59;5050021;28;20408;-37
2022/04/05 03:31:55;;;;;;;15.73;10.90;;;;;;;8.95;64.50;99450.34;5049035;28;20041;-38
2022/04/05 03:34:20;;;;;;;19.85;10.88;;;;;;;9.03;64.53;99448.53;5053186;28;20025;-37
2022/04/05 03:36:46;;;;;;;19.40;11.55;;;;;;;8.91;64.56;99449.13;5054417;28;20074;-38
2022/04/05 03:39:13;;;;;;;20.63;11.75;;;;;;;9.18;63.64;99449.19;5054021;28;20119;-38
2022/04/05 03:41:40;;;;;;;21.13;11.13;;;;;;;9.09;64.08;99453.03;5054213;28;20028;-37
2022/04/05 03:44:06;;;;;;;26.23;16.40;;;;;;;8.92;64.51;99450.72;5054284;28;20029;-39
2022/04/05 03:46:31;;;;;;;82.43;39.90;;;;;;;8.95;64.36;99455.66;5054098;28;20043;-38
2022/04/05 03:48:57;;;;;;;20.05;12.35;;;;;;;8.72;64.79;99456.00;5053813;28;20032;-37
2022/04/05 03:51:22;;;;;;;20.15;11.90;;;;;;;8.77;64.79;99455.38;5053984;28;20496;-37
2022/04/05 03:53:48;;;;;;;19.45;11.73;;;;;;;8.98;65.09;99430.53;5053715;28;20449;-37
2022/04/05 03:56:13;;;;;;;22.85;14.35;;;;;;;9.27;63.26;99465.72;5053750;28;20017;-37
2022/04/05 03:58:39;;;;;;;37.67;22.00;;;;;;;9.18;63.57;99455.31;5053812;28;20021;-37
2022/04/05 04:01:05;;;;;;;40.00;23.88;;;;;;;9.38;63.21;99459.81;5053469;28;20028;-37
2022/04/05 04:03:30;;;;;;;21.17;11.45;;;;;;;9.20;62.63;99466.53;5053612;28;20025;-38
2022/04/05 04:05:56;;;;;;;18.85;11.35;;;;;;;8.99;62.21;99459.53;5054159;28;20016;-39
2022/04/05 04:08:21;;;;;;;19.98;11.68;;;;;;;9.08;62.84;99467.31;5053697;28;20060;-38
2022/04/05 04:10:51;;;;;;;21.45;11.30;;;;;;;8.98;62.17;99463.19;5053304;28;20412;-38
2022/04/05 04:13:16;;;;;;;26.17;12.38;;;;;;;9.15;62.42;99465.50;5053591;28;20032;-38
2022/04/05 04:15:42;;;;;;;18.67;11.98;;;;;;;8.94;62.25;99461.16;5053740;28;20029;-37
2022/04/05 04:18:07;;;;;;;22.70;12.70;;;;;;;9.06;62.19;99459.53;5053491;28;20025;-37
2022/04/05 04:20:33;;;;;;;18.65;11.30;;;;;;;9.09;61.58;99463.66;5053331;28;20049;-37
2022/04/05 04:22:58;;;;;;;19.50;12.00;;;;;;;9.11;61.56;99461.63;5053346;28;20094;-37
2022/04/05 04:25:24;;;;;;;24.45;11.57;;;;;;;8.92;62.10;99456.03;5053181;28;20024;-37
2022/04/05 04:27:49;;;;;;;20.88;11.70;;;;;;;9.01;62.28;99459.34;5053131;28;20521;-36
2022/04/05 04:30:15;;;;;;;22.83;12.32;;;;;;;9.10;62.26;99460.81;5053514;28;20049;-37
2022/04/05 04:32:40;;;;;;;21.80;12.13;;;;;;;9.02;62.55;99458.31;5052894;28;20060;-37
2022/04/05 04:35:07;;;;;;;24.23;13.13;;;;;;;9.11;62.33;99459.78;5052802;28;20017;-37
2022/04/05 04:37:33;;;;;;;21.55;12.90;;;;;;;9.26;61.45;99462.25;5052820;28;20096;-38
2022/04/05 04:39:59;;;;;;;24.05;14.02;;;;;;;9.31;60.93;99466.94;5052745;28;20163;-38
2022/04/05 04:42:24;;;;;;;24.02;13.25;;;;;;;9.13;61.76;99470.19;5051902;28;20029;-38
2022/04/05 04:44:50;;;;;;;24.10;13.57;;;;;;;9.25;61.50;99467.75;5051408;28;20371;-38
2022/04/05 04:47:17;;;;;;;21.27;12.25;;;;;;;9.94;73.07;99467.41;5052949;28;20017;-38
2022/04/05 04:49:42;;;;;;;29.08;13.57;;;;;;;9.62;60.65;99469.03;5052821;28;20025;-38
2022/04/05 04:52:07;;;;;;;27.70;15.82;;;;;;;9.55;60.46;99469.03;5052674;28;20021;-37
2022/04/05 04:54:33;;;;;;;23.75;12.90;;;;;;;9.53;60.62;99470.25;5052393;28;20024;-37
2022/04/05 04:56:58;;;;;;;23.02;12.63;;;;;;;9.58;60.14;99471.28;5052142;28;20548;-37
2022/04/05 04:59:24;;;;;;;22.38;12.50;;;;;;;9.47;60.44;99468.41;5052189;28;20039;-37
2022/04/05 05:01:49;;;;;;;18.77;10.98;;;;;;;9.42;60.02;99471.66;5052330;28;20477;-37
2022/04/05 05:04:15;;;;;;;17.50;11.35;;;;;;;9.32;60.92;99476.56;5051146;28;20077;-37
2022/04/05 05:06:40;;;;;;;19.67;10.95;;;;;;;9.11;61.60;99475.69;5051943;28;20033;-37
2022/04/05 05:09:05;;;;;;;18.48;11.57;;;;;;;9.09;62.25;99463.66;5052344;28;20044;-37
2022/04/05 05:11:31;;;;;;;19.77;11.23;;;;;;;8.99;63.18;99470.16;5052284;28;20453;-37
2022/04/05 05:13:56;;;;;;;21.13;11.48;;;;;;;9.23;61.95;99467.97;5046949;28;20021;-37
2022/04/05 05:16:22;;;;;;;19.80;11.90;;;;;;;9.14;62.01;99464.69;5037097;28;20365;-37
2022/04/05 05:18:47;;;;;;;25.48;11.60;;;;;;;9.10;62.58;99470.59;5050846;28;20473;-38
2022/04/05 05:21:13;;;;;;;20.98;12.02;;;;;;;8.98;63.05;99476.47;5051414;28;20082;-38
2022/04/05 05:23:38;;;;;;;19.45;12.05;;;;;;;9.23;62.28;99475.94;5051952;28;20029;-38
2022/04/05 05:26:04;;;;;;;22.27;12.63;;;;;;;9.11;62.53;99486.31;5051785;28;20402;-38
2022/04/05 05:28:29;;;;;;;21.70;11.50;;;;;;;9.11;62.31;99486.31;5051845;28;20056;-39
2022/04/05 05:30:55;;;;;;;19.95;12.00;;;;;;;9.13;62.33;99486.13;5051811;28;20032;-37
2022/04/05 05:33:20;;;;;;;19.77;11.70;;;;;;;9.05;62.66;99483.66;5051232;28;20024;-38
2022/04/05 05:35:45;;;;;;;20.85;11.90;;;;;;;9.23;62.39;99480.44;5050511;28;20024;-37
2022/04/05 05:38:11;;;;;;;25.83;13.25;;;;;;;9.24;62.03;99488.19;5050073;28;20185;-37
2022/04/05 05:40:36;;;;;;;23.33;13.00;;;;;;;9.43;61.50;99483.13;5049933;28;20025;-37
2022/04/05 05:43:04;;;;;;;18.55;12.77;;;;;;;9.30;62.08;99483.91;5050079;28;20438;-38
2022/04/05 05:45:33;;;;;;;21.35;12.60;;;;;;;9.53;61.63;99478.22;5050260;28;20412;-38
2022/04/05 05:47:58;;;;;;;20.98;13.25;;;;;;;9.53;61.73;99488.84;5050623;28;20037;-38
2022/04/05 05:50:25;;;;;;;23.45;13.82;;;;;;;9.69;60.67;99480.50;5051553;28;20033;-36
2022/04/05 05:52:52;;;;;;;21.42;14.65;;;;;;;9.40;60.93;99484.34;5051615;28;20056;-37
2022/04/05 05:55:19;;;;;;;22.80;13.90;;;;;;;9.68;61.06;99480.69;5051444;28;20025;-37
2022/04/05 05:57:44;;;;;;;20.45;13.70;;;;;;;9.68;61.39;99483.34;5051212;28;20035;-38
2022/04/05 06:00:17;;;;;;;22.58;13.25;;;;;;;9.70;61.27;99478.66;5051525;28;20025;-38
2022/04/05 06:02:44;;;;;;;23.85;14.65;;;;;;;10.04;60.05;99488.25;5051217;28;20033;-38
2022/04/05 06:05:09;;;;;;;21.55;14.40;;;;;;;9.79;61.38;99488.88;5051355;28;20024;-37
2022/04/05 06:07:35;;;;;;;25.65;13.73;;;;;;;9.75;61.46;99485.00;5050718;28;20134;-38
2022/04/05 06:10:02;;;;;;;23.08;12.50;;;;;;;9.65;61.52;99487.22;5050916;28;20102;-37
2022/04/05 06:12:28;;;;;;;22.35;12.85;;;;;;;9.78;61.32;99489.88;5051126;28;20025;-37
2022/04/05 06:14:53;;;;;;;21.50;12.63;;;;;;;9.78;61.53;99489.06;5050868;28;20079;-38
2022/04/05 06:17:19;;;;;;;20.25;12.38;;;;;;;9.99;61.20;99490.69;5050397;28;20029;-38
2022/04/05 06:19:45;;;;;;;19.35;12.13;;;;;;;9.80;60.84;99495.00;5050396;28;20048;-38
2022/04/05 06:22:11;;;;;;;22.30;12.02;;;;;;;9.69;61.76;99490.28;5050501;28;20052;-38
2022/04/05 06:24:37;;;;;;;17.75;11.82;;;;;;;9.85;61.39;99495.22;5050599;28;20108;-37
2022/04/05 06:27:03;;;;;;;22.25;12.93;;;;;;;10.10;60.56;99490.06;5050553;28;20060;-37
2022/04/05 06:29:28;;;;;;;22.45;12.00;;;;;;;10.04;60.58;99500.72;5050023;28;20098;-38
2022/04/05 06:31:53;;;;;;;20.92;11.93;;;;;;;9.90;59.82;99498.09;5050573;28;20017;-38
2022/04/05 06:34:19;;;;;;;20.38;12.80;;;;;;;9.93;60.42;99497.66;5049450;28;20025;-36
2022/04/05 06:36:44;;;;;;;23.13;11.23;;;;;;;10.13;59.38;99500.31;5050166;28;20086;-38
2022/04/05 06:39:10;;;;;;;17.45;12.30;;;;;;;10.33;58.70;99508.28;5048832;28;20029;-38
2022/04/05 06:41:35;;;;;;;19.10;12.10;;;;;;;10.80;56.79;99497.50;5049634;28;20388;-38
2022/04/05 06:44:01;;;;;;;20.00;11.73;;;;;;;10.44;57.79;99508.69;5049954;28;20021;-38
2022/04/05 06:46:27;;;;;;;16.50;11.02;;;;;;;10.36;58.55;99507.06;5049763;28;20012;-39
2022/04/05 06:48:53;;;;;;;14.43;9.98;;;;;;;10.46;58.22;99507.44;5049979;28;20056;-38
2022/04/05 06:51:20;;;;;;;16.73;9.60;;;;;;;10.52;57.75;99506.59;5049488;28;20048;-39
2022/04/05 06:53:46;;;;;;;19.42;10.88;;;;;;;10.60;57.30;99520.72;5050075;28;20025;-39
2022/04/05 06:56:12;;;;;;;15.75;10.45;;;;;;;10.61;56.63;99501.06;5047315;28;20013;-39
2022/04/05 06:58:38;;;;;;;17.25;10.48;;;;;;;10.62;56.61;99508.00;5049515;28;20069;-38
2022/04/05 07:01:03;;;;;;;17.23;11.40;;;;;;;10.61;56.61;99509.06;5049320;28;20080;-39
2022/04/05 07:03:29;;;;;;;16.45;10.82;;;;;;;10.51;57.39;99504.97;5049762;28;20017;-38
2022/04/05 07:05:54;;;;;;;16.63;10.00;;;;;;;10.46;57.44;99509.28;5049775;28;20037;-38
2022/04/05 07:08:20;;;;;;;20.23;10.10;;;;;;;10.60;57.14;99507.41;5051221;28;20051;-37
2022/04/05 07:10:45;;;;;;;17.45;11.05;;;;;;;10.68;56.63;99502.69;5053744;28;20028;-38
2022/04/05 07:13:11;;;;;;;16.70;10.50;;;;;;;10.70;56.62;99505.09;5053223;28;20017;-38
2022/04/05 07:15:36;;;;;;;15.75;10.10;;;;;;;10.59;56.50;99508.44;5053650;28;20082;-37
2022/04/05 07:18:02;;;;;;;14.35;9.10;;;;;;;10.70;55.75;99508.59;5053883;28;20025;-37
2022/04/05 07:20:27;;;;;;;15.80;9.32;;;;;;;10.57;56.11;99513.97;5053714;28;20329;-39
2022/04/05 07:22:53;;;;;;;16.55;9.18;;;;;;;11.10;55.68;99510.28;5053428;28;20028;-39
2022/04/05 07:25:20;;;;;;;18.15;9.57;;;;;;;11.68;57.05;99512.78;5053777;28;20032;-39
2022/04/05 07:27:47;;;;;;;13.68;8.95;;;;;;;12.32;53.38;99505.53;5053549;28;20064;-38
2022/04/05 07:30:13;;;;;;;14.43;9.15;;;;;;;12.46;53.70;99500.84;5053729;28;20096;-38
2022/04/05 07:32:42;;;;;;;17.30;9.02;;;;;;;12.85;51.12;99503.28;5053488;28;20032;-38
2022/04/05 07:35:08;;;;;;;13.57;9.20;;;;;;;14.11;49.09;99508.72;5053798;28;20108;-39
2022/04/05 07:37:35;;;;;;;13.48;9.18;;;;;;;15.15;45.74;99505.28;5054239;28;20021;-39
2022/04/05 07:40:03;;;;;;;12.65;8.32;;;;;;;16.26;46.21;99500.41;5053993;28;20025;-38
2022/04/05 07:42:28;;;;;;;13.25;8.48;;;;;;;17.26;41.26;99500.34;5053324;28;20056;-38
2022/04/05 07:44:54;;;;;;;13.55;8.80;;;;;;;17.82;42.48;99506.25;5051652;28;20472;-38
2022/04/05 07:47:19;;;;;;;15.25;9.65;;;;;;;18.17;38.96;99508.41;5053327;28;20131;-38
2022/04/05 07:49:45;;;;;;;11.77;8.88;;;;;;;18.39;41.08;99506.66;5052973;28;20029;-38
2022/04/05 07:52:11;;;;;;;12.18;8.60;;;;;;;18.43;40.10;99502.38;5053170;28;20021;-38
2022/04/05 07:54:36;;;;;;;13.75;8.82;;;;;;;19.01;36.83;99507.78;5052665;28;20028;-38
2022/04/05 07:57:03;;;;;;;15.40;9.00;;;;;;;19.90;34.81;99505.78;5052904;28;20060;-38
2022/04/05 07:59:29;;;;;;;13.07;9.10;;;;;;;19.85;34.45;99501.19;5052905;28;20107;-38
2022/04/05 08:01:54;;;;;;;11.85;8.32;;;;;;;19.76;34.03;99499.31;5052858;28;20152;-39
2022/04/05 08:04:20;;;;;;;13.90;8.80;;;;;;;19.75;34.70;99501.19;5051802;28;20020;-38
2022/04/05 08:06:45;;;;;;;11.98;8.25;;;;;;;20.33;36.48;99489.25;5052256;28;20539;-38
2022/04/05 08:09:11;;;;;;;14.05;8.88;;;;;;;20.81;33.04;99487.75;5050573;28;20464;-38
2022/04/05 08:11:36;;;;;;;12.00;8.77;;;;;;;20.48;33.03;99489.19;5051179;28;20378;-38
2022/04/05 08:14:01;;;;;;;11.27;8.52;;;;;;;20.81;32.35;99486.94;5051460;28;20029;-38
2022/04/05 08:16:28;;;;;;;10.18;7.35;;;;;;;21.23;35.03;99480.25;5052296;28;20448;-38
2022/04/05 08:18:54;;;;;;;10.50;7.93;;;;;;;21.99;34.21;99478.84;5052265;28;20021;-38
2022/04/05 08:21:19;;;;;;;13.15;8.20;;;;;;;22.80;32.54;99484.47;5051655;28;20031;-38
2022/04/05 08:23:45;;;;;;;12.15;8.63;;;;;;;23.36;30.86;99479.41;5052197;28;20048;-38
2022/04/05 08:26:11;;;;;;;12.82;9.35;;;;;;;23.92;28.18;99480.44;5052849;28;20020;-38
2022/04/05 08:28:37;;;;;;;10.50;8.35;;;;;;;23.97;29.14;99474.91;5051893;28;20028;-38
2022/04/05 08:31:02;;;;;;;14.85;9.05;;;;;;;22.29;29.85;99463.41;5052677;28;20032;-48
2022/04/05 08:33:28;;;;;;;16.90;9.85;;;;;;;22.63;27.96;99467.88;5052485;28;20112;-48
2022/04/05 08:35:55;;;;;;;13.55;9.73;;;;;;;22.89;29.35;99473.00;5052145;28;20405;-48
2022/04/05 08:38:21;;;;;;;15.60;9.35;;;;;;;22.97;29.03;99470.44;5052230;28;20029;-48
2022/04/05 08:40:46;;;;;;;12.30;9.15;;;;;;;23.18;29.66;99468.25;5052002;28;20349;-48
2022/04/05 08:43:12;;;;;;;9.82;8.50;;;;;;;23.41;29.44;99461.13;5052621;28;20032;-51
2022/04/05 08:45:41;;;;;;;13.25;7.50;;;;;;;23.18;30.31;99456.59;5052387;28;20082;-49
2022/04/05 08:48:10;;;;;;;14.93;8.90;;;;;;;23.28;27.82;99453.72;5052065;28;20025;-48
2022/04/05 08:50:35;;;;;;;14.45;9.13;;;;;;;23.63;27.54;99448.84;5051223;28;20044;-49
2022/04/05 08:53:01;;;;;;;11.35;9.00;;;;;;;23.80;26.89;99445.63;5049448;28;20033;-49
2022/04/05 08:55:28;;;;;;;13.57;9.52;;;;;;;23.82;25.79;99440.69;5052223;28;20029;-49
2022/04/05 08:57:58;;;;;;;17.77;9.30;;;;;;;23.35;27.31;99440.59;5052077;28;20519;-48
2022/04/05 09:00:24;;;;;;;15.38;9.23;;;;;;;22.18;28.37;99424.75;5052101;28;20404;-49
2022/04/05 09:02:57;;;;;;;13.23;8.48;;;;;;;20.95;30.75;99431.16;5052027;28;20028;-49
2022/04/05 09:05:37;;;;;;;12.45;9.48;;;;;;;21.66;28.88;99418.22;5051858;28;20017;-49
2022/04/05 09:08:24;;;;;;;13.60;8.48;;;;;;;22.24;27.89;99414.66;5051924;28;20048;-49
2022/04/05 09:11:02;;;;;;;10.98;8.30;;;;;;;23.17;27.39;99411.56;5051589;28;20036;-50
2022/04/05 09:13:28;;;;;;;13.93;8.38;;;;;;;23.18;26.10;99405.84;5051682;28;20274;-47
2022/04/05 09:15:58;;;;;;;16.38;8.75;;;;;;;23.14;26.13;99404.81;5051361;28;20033;-49
2022/04/05 09:18:34;;;;;;;9.65;7.82;;;;;;;22.53;27.17;99406.47;5051760;28;20400;-51
2022/04/05 09:21:00;;;;;;;14.88;8.77;;;;;;;22.33;26.97;99401.28;5050183;28;20025;-50
2022/04/05 09:23:28;;;;;;;12.70;8.10;;;;;;;22.79;27.15;99404.22;5051311;28;20485;-49
2022/04/05 09:25:59;;;;;;;11.70;7.40;;;;;;;22.36;27.46;99406.16;5051457;28;20452;-49
2022/04/05 09:28:27;;;;;;;9.52;6.90;;;;;;;22.17;27.18;99401.44;5051656;28;20058;-48
2022/04/05 09:30:57;;;;;;;11.05;7.45;;;;;;;20.35;29.21;99400.59;5050358;28;20028;-49
2022/04/05 09:33:22;;;;;;;10.15;7.70;;;;;;;18.95;31.84;99401.81;5051036;28;20405;-49
2022/04/05 09:35:50;;;;;;;11.13;7.10;;;;;;;19.13;31.23;99409.41;5051133;28;20021;-48
2022/04/05 09:38:17;;;;;;;9.77;6.82;;;;;;;20.33;30.40;99403.59;5051025;28;20024;-48
2022/04/05 09:40:44;;;;;;;15.63;7.00;;;;;;;21.07;29.84;99396.44;5050553;28;20021;-49
2022/04/05 09:43:12;;;;;;;10.73;7.10;;;;;;;21.28;29.18;99393.59;5050865;28;20488;-48
2022/04/05 09:46:01;;;;;;;10.05;6.82;;;;;;;21.37;28.34;99391.09;5050992;28;20025;-49
2022/04/05 09:48:30;;;;;;;10.20;7.72;;;;;;;22.35;27.54;99382.84;5050966;28;20025;-49
2022/04/05 09:50:59;;;;;;;14.45;7.45;;;;;;;23.12;27.00;99387.22;5048903;28;20108;-47
2022/04/05 09:53:38;;;;;;;9.43;6.93;;;;;;;22.85;27.26;99385.97;5043087;28;20419;-48
2022/04/05 09:56:10;;;;;;;11.38;7.00;;;;;;;22.61;27.84;99386.03;5049358;28;20549;-50
2022/04/05 09:58:43;;;;;;;6.18;5.28;;;;;;;22.32;26.25;99375.31;5049795;28;20033;-49
2022/04/05 10:01:11;;;;;;;7.72;5.72;;;;;;;21.89;27.16;99376.00;5046973;28;20170;-49
2022/04/05 10:03:41;;;;;;;6.97;5.30;;;;;;;22.06;26.90;99367.44;5048721;28;20025;-48
2022/04/05 10:06:07;;;;;;;9.05;5.63;;;;;;;21.71;27.70;99366.72;5048743;28;20024;-50
2022/04/05 10:08:34;;;;;;;6.75;5.50;;;;;;;20.31;29.55;99366.06;5049444;28;20422;-49
2022/04/05 10:11:00;;;;;;;8.15;5.25;;;;;;;20.35;29.36;99360.06;5048857;28;20021;-50
2022/04/05 10:13:28;;;;;;;8.27;5.82;;;;;;;18.85;31.40;99366.72;5048887;28;20036;-50
2022/04/05 10:15:54;;;;;;;9.80;6.30;;;;;;;19.05;32.01;99355.19;5050524;28;20029;-49
2022/04/05 10:18:20;;;;;;;11.80;6.75;;;;;;;19.74;30.61;99348.41;5050937;28;20429;-50
2022/04/05 10:20:50;;;;;;;10.65;6.35;;;;;;;20.33;30.19;99346.84;5050161;28;20045;-50
2022/04/05 10:23:20;;;;;;;7.45;6.30;;;;;;;20.96;30.28;99348.94;5050217;28;20020;-48
2022/04/05 10:25:51;;;;;;;9.65;6.60;;;;;;;21.55;27.95;99341.72;5050161;28;20078;-52
2022/04/05 10:28:20;;;;;;;9.60;5.90;;;;;;;21.08;28.45;99343.97;5050540;28;20029;-50
2022/04/05 10:30:54;;;;;;;8.65;5.80;;;;;;;21.38;27.90;99338.59;5049622;28;20029;-49
2022/04/05 10:33:45;;;;;;;7.22;5.75;;;;;;;22.37;26.05;99335.38;5049810;28;20025;-52
2022/04/05 10:36:11;;;;;;;9.40;5.60;;;;;;;21.98;27.39;99336.38;5047937;28;20473;-49
2022/04/05 10:38:36;;;;;;;6.85;5.30;;;;;;;21.41;28.04;99324.50;5049889;28;20028;-50
2022/04/05 10:41:14;;;;;;;7.88;4.88;;;;;;;22.04;27.31;99324.38;5049092;28;20480;-49
2022/04/05 10:43:41;;;;;;;6.53;4.38;;;;;;;22.61;26.93;99319.03;5048975;28;20025;-49
2022/04/05 10:46:07;;;;;;;8.98;4.82;;;;;;;22.21;27.46;99315.75;5046843;28;20101;-50
2022/04/05 10:48:33;;;;;;;9.10;4.70;;;;;;;22.28;27.63;99311.94;5049512;28;20396;-50
2022/04/05 10:51:01;;;;;;;8.98;4.72;;;;;;;21.22;27.86;99305.44;5049504;28;20073;-51
2022/04/05 10:54:21;;;;;;;6.32;4.88;;;;;;;20.67;29.67;99305.59;5049759;28;20033;-50
2022/04/05 10:56:27;;;;;;;6.68;4.75;;;;;;;21.13;28.97;99301.75;5046793;28;20163;-48
2022/04/05 10:58:52;;;;;;;6.25;4.60;;;;;;;20.53;30.33;99293.78;5049964;28;20051;-50
2022/04/05 11:01:20;;;;;;;5.95;4.40;;;;;;;21.37;28.39;99286.38;5049971;28;20033;-51
2022/04/05 11:04:18;;;;;;;5.85;4.40;;;;;;;21.83;27.61;99291.31;5049958;28;20033;-49
2022/04/05 11:07:02;;;;;;;8.30;5.22;;;;;;;21.86;27.82;99281.81;5049771;28;20077;-49
2022/04/05 11:09:32;;;;;;;8.35;5.28;;;;;;;22.81;26.91;99281.88;5049933;28;20405;-51
2022/04/05 11:12:01;;;;;;;12.35;10.48;;;;;;;23.22;25.97;99275.78;5049616;28;20032;-52
2022/04/05 11:14:38;;;;;;;5.63;4.63;;;;;;;23.05;26.18;99273.63;5049694;28;20032;-52
2022/04/05 11:17:06;;;;;;;7.60;4.07;;;;;;;22.67;25.74;99272.88;5049692;28;20025;-50
2022/04/05 11:19:35;;;;;;;6.05;5.30;;;;;;;22.55;26.72;99266.00;5050012;28;20032;-50
2022/04/05 11:22:06;;;;;;;7.95;6.43;;;;;;;23.43;25.63;99268.06;5049406;28;20025;-48
2022/04/05 11:25:07;;;;;;;6.10;3.58;;;;;;;22.86;24.48;99259.28;5049714;28;20029;-51